createdAt,value
2023-03-11T00:00:19.032Z,0.63
2023-03-11T00:02:48.196Z,0.67
2023-03-11T00:05:18.352Z,0.77
2023-03-11T00:07:46.354Z,0.80
2023-03-11T00:10:16.304Z,0.77
2023-03-11T00:12:44.570Z,0.87
2023-03-11T00:15:13.880Z,0.80
2023-03-11T00:17:43.351Z,1.00
2023-03-11T00:20:19.638Z,0.83
2023-03-11T00:22:47.702Z,0.90
2023-03-11T00:25:16.407Z,0.93
2023-03-11T00:27:44.917Z,0.77
2023-03-11T00:30:14.623Z,0.80
2023-03-11T00:32:44.622Z,1.00
2023-03-11T00:35:14.414Z,0.80
2023-03-11T00:37:42.606Z,1.03
2023-03-11T00:40:13.849Z,1.00
2023-03-11T00:42:41.938Z,0.80
2023-03-11T00:45:10.513Z,1.10
2023-03-11T00:47:38.558Z,1.03
2023-03-11T00:50:12.224Z,1.47
2023-03-11T00:52:40.258Z,1.30
2023-03-11T00:55:09.198Z,1.20
2023-03-11T00:57:37.174Z,1.20
2023-03-11T01:00:11.249Z,0.93
2023-03-11T01:02:39.826Z,1.50
2023-03-11T01:05:10.095Z,0.93
2023-03-11T01:07:38.424Z,1.23
2023-03-11T01:10:08.098Z,1.60
2023-03-11T01:12:36.133Z,1.87
2023-03-11T01:15:06.007Z,1.13
2023-03-11T01:17:34.063Z,1.33
2023-03-11T01:20:02.141Z,1.60
2023-03-11T01:22:31.475Z,1.10
2023-03-11T01:24:59.455Z,1.23
2023-03-11T01:27:28.482Z,1.30
2023-03-11T01:29:56.553Z,1.37
2023-03-11T01:32:24.771Z,1.10
2023-03-11T01:34:52.842Z,1.40
2023-03-11T01:37:20.930Z,1.00
2023-03-11T01:39:50.282Z,1.10
2023-03-11T01:42:18.285Z,0.93
2023-03-11T01:44:46.256Z,1.20
2023-03-11T01:47:34.866Z,1.17
2023-03-11T01:50:03.301Z,1.30
2023-03-11T01:52:31.833Z,1.53
2023-03-11T01:55:01.174Z,1.23
2023-03-11T01:57:29.252Z,1.50
2023-03-11T01:59:59.544Z,1.30
2023-03-11T02:02:32.876Z,1.40
2023-03-11T02:05:01.886Z,1.27
2023-03-11T02:07:30.204Z,1.47
2023-03-11T02:09:58.374Z,1.20
2023-03-11T02:12:32.062Z,1.10
2023-03-11T02:15:00.551Z,1.80
2023-03-11T02:17:28.686Z,1.77
2023-03-11T02:20:12.339Z,1.53
2023-03-11T02:22:42.679Z,1.73
2023-03-11T02:25:17.719Z,1.60
2023-03-11T02:27:49.977Z,0.90
2023-03-11T02:30:18.807Z,1.37
2023-03-11T02:32:48.527Z,1.50
2023-03-11T02:35:17.227Z,1.27
2023-03-11T02:37:47.390Z,0.90
2023-03-11T02:40:58.306Z,1.20
2023-03-11T02:43:34.943Z,0.80
2023-03-11T02:46:03.982Z,1.03
2023-03-11T02:48:32.438Z,1.10
2023-03-11T02:51:00.852Z,1.13
2023-03-11T02:53:32.398Z,0.73
2023-03-11T02:56:00.355Z,1.00
2023-03-11T02:58:29.807Z,1.27
2023-03-11T03:00:57.860Z,1.10
2023-03-11T03:03:26.022Z,1.07
2023-03-11T03:05:53.946Z,0.80
2023-03-11T03:08:21.906Z,0.93
2023-03-11T03:10:49.854Z,1.00
2023-03-11T03:13:17.863Z,1.10
2023-03-11T03:15:47.166Z,1.20
2023-03-11T03:18:15.103Z,0.90
2023-03-11T03:20:43.116Z,1.30
2023-03-11T03:23:11.541Z,1.20
2023-03-11T03:25:42.634Z,1.00
2023-03-11T03:28:11.653Z,1.03
2023-03-11T03:30:40.120Z,1.23
2023-03-11T03:33:09.864Z,1.10
2023-03-11T03:35:42.135Z,1.10
2023-03-11T03:38:10.285Z,1.40
2023-03-11T03:40:38.361Z,0.90
2023-03-11T03:43:06.671Z,1.53
2023-03-11T03:45:34.699Z,0.80
2023-03-11T03:48:02.740Z,1.43
2023-03-11T03:50:32.089Z,1.13
2023-03-11T03:53:00.161Z,1.10
2023-03-11T03:55:28.192Z,1.17
2023-03-11T03:57:56.215Z,1.43
2023-03-11T04:00:24.345Z,1.53
2023-03-11T04:02:52.378Z,1.47
2023-03-11T04:05:20.445Z,0.90
2023-03-11T04:07:49.760Z,1.20
2023-03-11T04:10:17.934Z,1.20
2023-03-11T04:12:45.917Z,1.50
2023-03-11T04:15:14.128Z,0.80
2023-03-11T04:17:42.105Z,1.07
2023-03-11T04:20:11.566Z,1.07
2023-03-11T04:22:39.536Z,1.20
2023-03-11T04:25:09.876Z,1.00
2023-03-11T04:27:38.764Z,0.97
2023-03-11T04:30:08.025Z,1.70
2023-03-11T04:32:36.560Z,1.93
2023-03-11T04:35:04.822Z,1.07
2023-03-11T04:37:33.747Z,1.33
2023-03-11T04:40:01.705Z,1.43
2023-03-11T04:42:31.009Z,1.60
2023-03-11T04:44:58.990Z,1.30
2023-03-11T04:47:26.947Z,1.83
2023-03-11T04:49:56.192Z,1.17
2023-03-11T04:52:24.515Z,1.37
2023-03-11T04:54:52.483Z,0.97
2023-03-11T04:57:20.514Z,1.30
2023-03-11T04:59:49.867Z,1.57
2023-03-11T05:02:17.821Z,1.03
2023-03-11T05:04:46.247Z,2.50
2023-03-11T05:07:14.288Z,1.40
2023-03-11T05:09:42.429Z,1.40
2023-03-11T05:12:13.034Z,1.40
2023-03-11T05:14:41.134Z,1.53
2023-03-11T05:17:12.107Z,1.07
2023-03-11T05:19:40.354Z,2.20
2023-03-11T05:22:08.940Z,1.40
2023-03-11T05:24:37.006Z,1.37
2023-03-11T05:27:05.484Z,1.17
2023-03-11T05:29:33.901Z,1.30
2023-03-11T05:32:01.923Z,1.27
2023-03-11T05:34:31.576Z,1.20
2023-03-11T05:37:03.180Z,1.00
2023-03-11T05:39:31.384Z,1.73
2023-03-11T05:41:59.497Z,1.50
2023-03-11T05:44:27.624Z,1.20
2023-03-11T05:46:55.656Z,1.30
2023-03-11T05:49:24.108Z,1.60
2023-03-11T05:51:55.644Z,1.47
2023-03-11T05:54:24.765Z,1.03
2023-03-11T05:56:52.817Z,1.53
2023-03-11T05:59:20.976Z,1.00
2023-03-11T06:01:48.918Z,1.10
2023-03-11T06:04:16.974Z,2.53
2023-03-11T06:06:45.151Z,1.10
2023-03-11T06:09:15.641Z,1.97
2023-03-11T06:11:44.064Z,1.33
2023-03-11T06:14:13.784Z,1.33
2023-03-11T06:16:42.307Z,1.73
2023-03-11T06:19:10.364Z,1.10
2023-03-11T06:21:38.346Z,1.20
2023-03-11T06:24:07.007Z,1.10
2023-03-11T06:26:36.534Z,1.37
2023-03-11T06:29:04.566Z,1.43
2023-03-11T06:31:32.509Z,1.50
2023-03-11T06:34:00.458Z,1.10
2023-03-11T06:36:28.583Z,1.30
2023-03-11T06:38:56.679Z,1.40
2023-03-11T06:41:24.832Z,1.07
2023-03-11T06:43:54.154Z,1.23
2023-03-11T06:46:23.784Z,1.60
2023-03-11T06:48:52.367Z,1.90
2023-03-11T06:51:21.194Z,1.43
2023-03-11T06:53:51.756Z,1.30
2023-03-11T06:56:21.127Z,1.63
2023-03-11T06:58:49.634Z,1.33
2023-03-11T07:01:21.034Z,1.27
2023-03-11T07:03:49.919Z,1.37
2023-03-11T07:06:19.914Z,1.23
2023-03-11T07:08:48.846Z,1.20
2023-03-11T07:11:20.096Z,1.03
2023-03-11T07:13:48.570Z,1.07
2023-03-11T07:16:20.716Z,1.20
2023-03-11T07:18:52.517Z,1.33
2023-03-11T07:21:22.911Z,1.20
2023-03-11T07:23:54.474Z,2.10
2023-03-11T07:26:23.198Z,1.50
2023-03-11T07:28:52.791Z,1.33
2023-03-11T07:31:24.271Z,1.30
2023-03-11T07:33:52.754Z,1.10
2023-03-11T07:36:22.412Z,1.63
2023-03-11T07:38:55.409Z,1.30
2023-03-11T07:41:23.389Z,1.60
2023-03-11T07:43:53.689Z,1.50
2023-03-11T07:46:23.562Z,1.60
2023-03-11T07:48:52.894Z,1.13
2023-03-11T07:51:22.863Z,1.20
2023-03-11T07:53:53.376Z,1.73
2023-03-11T07:56:23.656Z,1.63
2023-03-11T07:58:52.478Z,1.77
2023-03-11T08:01:23.541Z,1.03
2023-03-11T08:03:56.984Z,1.30
2023-03-11T08:06:27.028Z,1.37
2023-03-11T08:08:55.038Z,1.40
2023-03-11T08:11:23.346Z,1.07
2023-03-11T08:13:51.996Z,1.30
2023-03-11T08:16:23.103Z,1.20
2023-03-11T08:18:52.384Z,1.10
2023-03-11T08:21:23.006Z,1.73
2023-03-11T08:23:51.086Z,1.30
2023-03-11T08:26:21.575Z,1.23
2023-03-11T08:28:50.264Z,1.10
2023-03-11T08:31:19.830Z,1.20
2023-03-11T08:33:50.889Z,1.30
2023-03-11T08:36:19.674Z,1.40
2023-03-11T08:38:48.296Z,1.27
2023-03-11T08:41:16.697Z,1.13
2023-03-11T08:43:44.935Z,1.20
2023-03-11T08:46:22.135Z,1.40
2023-03-11T08:48:51.548Z,1.23
2023-03-11T08:51:19.993Z,1.37
2023-03-11T08:53:48.504Z,1.03
2023-03-11T08:56:16.610Z,1.20
2023-03-11T08:58:44.729Z,1.30
2023-03-11T09:01:14.004Z,1.27
2023-03-11T09:03:42.318Z,1.00
2023-03-11T09:06:15.804Z,1.07
2023-03-11T09:08:44.489Z,1.40
2023-03-11T09:11:13.758Z,0.90
2023-03-11T09:13:42.560Z,1.00
2023-03-11T09:16:13.158Z,1.37
2023-03-11T09:18:41.179Z,1.20
2023-03-11T09:21:09.615Z,1.23
2023-03-11T09:23:39.015Z,1.10
2023-03-11T09:26:07.228Z,1.40
2023-03-11T09:28:35.279Z,1.20
2023-03-11T09:31:03.293Z,0.77
2023-03-11T09:33:31.335Z,1.30
2023-03-11T09:35:59.633Z,1.20
2023-03-11T09:38:27.684Z,1.23
2023-03-11T09:41:03.242Z,0.93
2023-03-11T09:43:45.451Z,2.30
2023-03-11T09:46:38.199Z,1.10
2023-03-11T09:49:14.319Z,1.20
2023-03-11T09:51:47.154Z,1.13
2023-03-11T09:54:15.207Z,0.77
2023-03-11T09:56:45.449Z,1.13
2023-03-11T09:59:19.532Z,1.20
2023-03-11T10:01:50.530Z,1.20
2023-03-11T10:04:24.437Z,1.20
2023-03-11T10:06:53.033Z,1.10
2023-03-11T10:09:31.899Z,1.07
2023-03-11T10:12:32.651Z,1.07
2023-03-11T10:15:17.611Z,1.00
2023-03-11T10:18:07.777Z,0.87
2023-03-11T10:20:47.066Z,1.33
2023-03-11T10:23:25.620Z,1.30
2023-03-11T10:26:01.387Z,1.10
2023-03-11T10:28:36.475Z,0.80
2023-03-11T10:31:12.094Z,1.67
2023-03-11T10:33:46.564Z,0.90
2023-03-11T10:36:23.883Z,0.70
2023-03-11T10:38:54.817Z,0.57
2023-03-11T10:41:27.780Z,0.87
2023-03-11T10:44:05.000Z,0.80
2023-03-11T10:46:33.346Z,1.20
2023-03-11T10:49:01.350Z,1.20
2023-03-11T10:51:35.472Z,0.90
2023-03-11T10:54:04.933Z,1.07
2023-03-11T10:56:36.067Z,1.00
2023-03-11T10:59:24.396Z,1.03
2023-03-11T11:01:57.849Z,1.43
2023-03-11T11:04:32.575Z,0.80
2023-03-11T11:07:22.011Z,1.07
2023-03-11T11:10:17.991Z,0.87
2023-03-11T11:12:55.822Z,1.07
2023-03-11T11:15:27.798Z,0.50
2023-03-11T11:17:58.553Z,0.93
2023-03-11T11:20:27.912Z,0.93
2023-03-11T11:23:00.650Z,1.20
2023-03-11T11:25:33.096Z,0.80
2023-03-11T11:28:15.585Z,1.03
2023-03-11T11:30:56.234Z,0.70
2023-03-11T11:33:27.699Z,2.40
2023-03-11T11:35:58.041Z,0.97
2023-03-11T11:38:28.936Z,0.90
2023-03-11T11:40:59.007Z,1.23
2023-03-11T11:43:37.251Z,1.27
2023-03-11T11:46:14.744Z,0.70
2023-03-11T11:48:50.479Z,0.80
2023-03-11T11:51:22.588Z,0.90
2023-03-11T11:53:57.627Z,0.90
2023-03-11T11:56:26.405Z,1.07
2023-03-11T11:58:55.368Z,1.17
2023-03-11T12:01:36.639Z,0.97
2023-03-11T12:04:32.952Z,1.03
2023-03-11T12:07:11.477Z,0.87
2023-03-11T12:09:48.591Z,1.10
2023-03-11T12:12:24.651Z,4.33
2023-03-11T12:15:10.248Z,2.43
2023-03-11T12:17:43.036Z,5.37
2023-03-11T12:20:20.834Z,2.60
2023-03-11T12:23:16.315Z,2.30
2023-03-11T12:25:55.579Z,1.43
2023-03-11T12:28:34.467Z,1.60
2023-03-11T12:31:05.883Z,2.07
2023-03-11T12:33:38.430Z,2.03
2023-03-11T12:36:10.291Z,0.70
2023-03-11T12:38:41.075Z,0.97
2023-03-11T12:41:27.372Z,0.80
2023-03-11T12:44:04.205Z,0.73
2023-03-11T12:47:12.049Z,1.07
2023-03-11T12:49:43.344Z,0.80
2023-03-11T12:52:26.569Z,0.80
2023-03-11T12:55:34.415Z,1.00
2023-03-11T12:58:37.440Z,1.00
2023-03-11T13:01:22.703Z,1.47
2023-03-11T13:04:01.174Z,0.73
2023-03-11T13:06:59.850Z,1.17
2023-03-11T13:09:31.019Z,1.03
2023-03-11T13:11:59.877Z,0.90
2023-03-11T13:14:32.824Z,0.83
2023-03-11T13:17:34.325Z,1.10
2023-03-11T13:20:02.627Z,1.30
2023-03-11T13:23:07.690Z,0.70
2023-03-11T13:25:41.019Z,1.23
2023-03-11T13:28:36.814Z,1.17
2023-03-11T13:31:16.934Z,0.70
2023-03-11T13:33:52.724Z,1.10
2023-03-11T13:36:33.688Z,0.90
2023-03-11T13:39:27.192Z,0.80
2023-03-11T13:41:55.523Z,0.80
2023-03-11T13:44:29.700Z,1.00
2023-03-11T13:47:02.348Z,1.00
2023-03-11T13:49:38.079Z,2.03
2023-03-11T13:52:11.188Z,2.73
2023-03-11T13:54:54.099Z,2.50
2023-03-11T13:57:29.098Z,1.80
2023-03-11T13:59:58.829Z,1.17
2023-03-11T14:02:28.374Z,1.90
2023-03-11T14:04:59.537Z,0.97
2023-03-11T14:07:29.978Z,1.03
2023-03-11T14:10:18.073Z,1.27
2023-03-11T14:12:46.794Z,0.87
2023-03-11T14:15:18.356Z,1.00
2023-03-11T14:17:48.692Z,1.00
2023-03-11T14:20:20.122Z,1.00
2023-03-11T14:22:49.786Z,0.87
2023-03-11T14:25:25.111Z,1.20
2023-03-11T14:27:56.538Z,1.30
2023-03-11T14:30:27.197Z,1.27
2023-03-11T14:33:00.696Z,1.20
2023-03-11T14:35:29.410Z,1.37
2023-03-11T14:37:58.835Z,0.70
2023-03-11T14:40:32.078Z,1.00
2023-03-11T14:43:02.933Z,1.00
2023-03-11T14:45:33.879Z,1.13
2023-03-11T14:48:08.189Z,0.77
2023-03-11T14:50:36.982Z,1.00
2023-03-11T14:53:10.034Z,1.27
2023-03-11T14:55:43.275Z,1.37
2023-03-11T14:58:17.376Z,1.40
2023-03-11T15:00:51.396Z,1.73
2023-03-11T15:03:24.547Z,0.97
2023-03-11T15:05:55.747Z,0.80
2023-03-11T15:08:27.547Z,1.00
2023-03-11T15:11:04.605Z,1.27
2023-03-11T15:13:33.009Z,1.00
2023-03-11T15:16:02.254Z,0.90
2023-03-11T15:18:32.481Z,1.90
2023-03-11T15:21:07.886Z,1.30
2023-03-11T15:23:37.212Z,1.00
2023-03-11T15:26:07.050Z,1.47
2023-03-11T15:28:38.251Z,1.20
2023-03-11T15:31:17.888Z,1.30
2023-03-11T15:33:46.204Z,1.43
2023-03-11T15:36:33.908Z,1.00
2023-03-11T15:39:17.379Z,1.17
2023-03-11T15:41:48.521Z,1.60
2023-03-11T15:44:29.081Z,0.80
2023-03-11T15:46:59.561Z,0.80
2023-03-11T15:49:28.148Z,1.10
2023-03-11T15:52:00.122Z,1.13
2023-03-11T15:54:28.171Z,1.20
2023-03-11T15:57:00.658Z,1.20
2023-03-11T15:59:30.006Z,1.63
2023-03-11T16:01:59.542Z,1.20
2023-03-11T16:04:28.110Z,1.30
2023-03-11T16:07:07.485Z,1.40
2023-03-11T16:09:36.600Z,1.50
2023-03-11T16:12:15.683Z,1.00
2023-03-11T16:14:43.622Z,1.40
2023-03-11T16:17:14.483Z,1.37
2023-03-11T16:19:43.278Z,1.40
2023-03-11T16:22:17.634Z,1.10
2023-03-11T16:24:46.665Z,1.63
2023-03-11T16:27:18.917Z,1.20
2023-03-11T16:29:47.361Z,0.93
2023-03-11T16:32:15.365Z,1.60
2023-03-11T16:34:43.328Z,1.67
2023-03-11T16:37:16.238Z,1.00
2023-03-11T16:39:44.295Z,1.17
2023-03-11T16:42:12.220Z,1.70
2023-03-11T16:44:41.506Z,1.90
2023-03-11T16:47:09.483Z,1.40
2023-03-11T16:49:37.515Z,1.30
2023-03-11T16:52:05.923Z,1.00
2023-03-11T16:54:35.098Z,1.47
2023-03-11T16:57:03.045Z,1.87
2023-03-11T16:59:31.278Z,1.90
2023-03-11T17:02:00.623Z,1.03
2023-03-11T17:04:28.680Z,1.23
2023-03-11T17:06:56.722Z,1.27
2023-03-11T17:09:24.713Z,1.50
2023-03-11T17:11:53.383Z,3.30
2023-03-11T17:14:21.369Z,3.43
2023-03-11T17:16:49.305Z,2.50
2023-03-11T17:19:18.702Z,1.83
2023-03-11T17:21:46.802Z,2.00
2023-03-11T17:24:14.774Z,1.43
2023-03-11T17:26:42.810Z,1.50
2023-03-11T17:29:11.714Z,1.40
2023-03-11T17:31:39.704Z,1.80
2023-03-11T17:34:07.828Z,1.10
2023-03-11T17:36:37.336Z,1.43
2023-03-11T17:39:05.307Z,1.90
2023-03-11T17:41:33.292Z,1.30
2023-03-11T17:44:01.234Z,1.27
2023-03-11T17:46:29.323Z,1.50
2023-03-11T17:48:57.346Z,2.03
2023-03-11T17:51:26.969Z,2.43
2023-03-11T17:53:56.955Z,2.10
2023-03-11T17:56:25.089Z,1.80
2023-03-11T17:58:53.431Z,1.97
2023-03-11T18:01:23.453Z,1.47
2023-03-11T18:03:53.032Z,2.10
2023-03-11T18:06:22.278Z,2.27
2023-03-11T18:08:50.932Z,1.80
2023-03-11T18:11:22.962Z,2.03
2023-03-11T18:13:51.059Z,1.90
2023-03-11T18:16:20.981Z,2.00
2023-03-11T18:18:49.441Z,1.80
2023-03-11T18:21:20.101Z,2.10
2023-03-11T18:23:48.742Z,1.80
2023-03-11T18:26:19.666Z,2.07
2023-03-11T18:28:49.011Z,1.80
2023-03-11T18:31:18.676Z,1.60
2023-03-11T18:33:50.016Z,2.20
2023-03-11T18:36:19.331Z,2.30
2023-03-11T18:38:47.696Z,1.70
2023-03-11T18:41:16.599Z,2.77
2023-03-11T18:43:44.911Z,2.60
2023-03-11T18:46:16.920Z,2.67
2023-03-11T18:48:47.457Z,2.43
2023-03-11T18:51:16.124Z,2.20
2023-03-11T18:53:44.161Z,2.07
2023-03-11T18:56:14.917Z,2.67
2023-03-11T18:58:43.209Z,2.70
2023-03-11T19:01:15.362Z,2.30
2023-03-11T19:03:45.175Z,3.03
2023-03-11T19:06:16.724Z,2.73
2023-03-11T19:08:44.865Z,3.10
2023-03-11T19:11:15.498Z,3.70
2023-03-11T19:13:49.695Z,3.10
2023-03-11T19:16:21.020Z,3.10
2023-03-11T19:18:49.155Z,2.60
2023-03-11T19:21:17.999Z,2.60
2023-03-11T19:23:46.480Z,2.57
2023-03-11T19:26:17.756Z,3.63
2023-03-11T19:28:45.845Z,3.50
2023-03-11T19:31:13.835Z,3.57
2023-03-11T19:33:45.515Z,3.63
2023-03-11T19:36:13.917Z,3.37
2023-03-11T19:38:41.955Z,3.97
2023-03-11T19:41:14.542Z,3.60
2023-03-11T19:43:42.683Z,3.77
2023-03-11T19:46:14.033Z,4.47
2023-03-11T19:48:44.898Z,4.73
2023-03-11T19:51:13.236Z,4.67
2023-03-11T19:53:41.791Z,5.00
2023-03-11T19:56:10.825Z,5.30
2023-03-11T19:58:39.006Z,4.93
2023-03-11T20:01:07.011Z,4.77
2023-03-11T20:03:35.008Z,5.97
2023-03-11T20:06:07.121Z,5.20
2023-03-11T20:08:37.324Z,6.27
2023-03-11T20:11:06.549Z,6.20
2023-03-11T20:13:35.765Z,6.97
2023-03-11T20:16:08.206Z,6.83
2023-03-11T20:18:36.476Z,5.93
2023-03-11T20:21:08.408Z,5.70
2023-03-11T20:23:36.625Z,5.40
2023-03-11T20:26:09.046Z,4.13
2023-03-11T20:28:37.019Z,4.93
2023-03-11T20:31:10.193Z,5.20
2023-03-11T20:33:38.966Z,4.97
2023-03-11T20:36:10.613Z,4.97
2023-03-11T20:38:38.646Z,5.67
2023-03-11T20:41:08.167Z,4.80
2023-03-11T20:43:36.369Z,4.90
2023-03-11T20:46:05.701Z,4.40
2023-03-11T20:48:34.472Z,4.13
2023-03-11T20:51:03.406Z,3.47
2023-03-11T20:53:32.942Z,3.87
2023-03-11T20:56:06.814Z,5.37
2023-03-11T20:58:35.359Z,4.60
2023-03-11T21:01:10.634Z,5.43
2023-03-11T21:03:40.774Z,6.23
2023-03-11T21:06:15.749Z,6.00
2023-03-11T21:08:45.548Z,7.20
2023-03-11T21:11:14.130Z,7.93
2023-03-11T21:13:42.631Z,6.20
2023-03-11T21:16:11.085Z,4.90
2023-03-11T21:18:39.356Z,3.90
2023-03-11T21:21:08.537Z,4.10
2023-03-11T21:23:36.667Z,4.67
2023-03-11T21:26:07.016Z,4.13
2023-03-11T21:28:35.473Z,5.23
2023-03-11T21:31:06.453Z,3.57
2023-03-11T21:33:34.583Z,4.23
2023-03-11T21:36:02.859Z,4.10
2023-03-11T21:38:31.976Z,4.23
2023-03-11T21:41:08.589Z,4.10
2023-03-11T21:43:37.408Z,3.53
2023-03-11T21:46:07.287Z,4.23
2023-03-11T21:48:36.064Z,3.60
2023-03-11T21:51:04.603Z,3.87
2023-03-11T21:53:32.969Z,3.60
2023-03-11T21:56:03.609Z,4.00
2023-03-11T21:58:33.440Z,4.00
2023-03-11T22:01:01.851Z,3.50
2023-03-11T22:03:30.663Z,3.30
2023-03-11T22:05:59.608Z,2.80
2023-03-11T22:08:28.422Z,3.20
2023-03-11T22:10:56.703Z,3.80
2023-03-11T22:13:25.283Z,4.63
2023-03-11T22:15:54.870Z,4.17
2023-03-11T22:18:23.002Z,4.30
2023-03-11T22:20:51.169Z,4.13
2023-03-11T22:23:19.244Z,3.97
2023-03-11T22:25:47.300Z,3.50
2023-03-11T22:28:15.353Z,3.70
2023-03-11T22:30:43.410Z,4.07
2023-03-11T22:33:12.767Z,5.40
2023-03-11T22:35:41.057Z,3.90
2023-03-11T22:38:09.134Z,3.60
2023-03-11T22:40:37.211Z,3.90
2023-03-11T22:43:05.266Z,3.70
2023-03-11T22:45:33.376Z,3.50
2023-03-11T22:48:01.437Z,3.67
2023-03-11T22:50:30.844Z,4.23
2023-03-11T22:52:58.831Z,3.57
2023-03-11T22:55:26.906Z,3.97
2023-03-11T22:57:54.884Z,3.53
2023-03-11T23:00:26.926Z,4.53
2023-03-11T23:02:57.864Z,3.80
2023-03-11T23:05:25.983Z,5.10
2023-03-11T23:07:55.410Z,3.80
2023-03-11T23:10:23.662Z,4.23
2023-03-11T23:12:51.681Z,3.47
2023-03-11T23:15:20.477Z,2.80
2023-03-11T23:17:48.437Z,3.20
2023-03-11T23:20:17.471Z,3.20
2023-03-11T23:22:45.468Z,3.33
2023-03-11T23:25:16.916Z,3.50
2023-03-11T23:27:46.377Z,3.33
2023-03-11T23:30:16.721Z,3.10
2023-03-11T23:32:45.595Z,4.13
2023-03-11T23:35:14.076Z,3.83
2023-03-11T23:37:42.118Z,4.30
2023-03-11T23:40:11.433Z,4.10
2023-03-11T23:42:40.826Z,3.50
2023-03-11T23:45:10.211Z,3.60
2023-03-11T23:47:38.339Z,3.20
2023-03-11T23:50:07.521Z,3.00
2023-03-11T23:52:36.132Z,3.03
2023-03-11T23:55:04.370Z,3.13
2023-03-11T23:57:32.463Z,3.67
